Time;durP1;ratioP1;P1;durP2;ratioP2;P2;SDS_P1;SDS_P2;PMS_P1;PMS_P2;Temp;Humidity;BMP_temperature;BMP_pressure;BME280_temperature;BME280_humidity;BME280_pressure;Samples;Min_cycle;Max_cycle;Signal;HPM_P1;HPM_P2
2021/02/01 00:00:38;;;;;;;49.8;22.1;;;;;;;0.73;100;93258.18;;;;
2021/02/01 00:01:40;;;;;;;49.8;22.1;;;;;;;0.73;100;93258.18;;;;
2021/02/01 00:02:41;;;;;;;49.8;22.1;;;;;;;0.73;100;93258.18;;;;
2021/02/01 00:03:42;;;;;;;49.8;22.1;;;;;;;0.73;100;93258.18;;;;
2021/02/01 00:04:42;;;;;;;49.8;22.1;;;;;;;0.73;100;93258.18;;;;
2021/02/01 00:05:43;;;;;;;53;21.7;;;;;;;0.68;100;93255.4;;;;
2021/02/01 00:06:46;;;;;;;53;21.7;;;;;;;0.68;100;93255.4;;;;
2021/02/01 00:07:47;;;;;;;53;21.7;;;;;;;0.68;100;93255.4;;;;
2021/02/01 00:08:48;;;;;;;53;21.7;;;;;;;0.68;100;93255.4;;;;
2021/02/01 00:09:48;;;;;;;53;21.7;;;;;;;0.68;100;93255.4;;;;
2021/02/01 00:10:49;;;;;;;53;21.7;;;;;;;0.68;100;93255.4;;;;
2021/02/01 00:11:51;;;;;;;53;21.7;;;;;;;0.68;100;93255.4;;;;
2021/02/01 00:12:51;;;;;;;53;21.7;;;;;;;0.68;100;93255.4;;;;
2021/02/01 00:13:53;;;;;;;53;21.7;;;;;;;0.68;100;93255.4;;;;
2021/02/01 00:14:54;;;;;;;53;21.7;;;;;;;0.68;100;93255.4;;;;
2021/02/01 00:15:54;;;;;;;53;21.7;;;;;;;0.68;100;93255.4;;;;
2021/02/01 00:16:55;;;;;;;48.2;20.8;;;;;;;0.65;100;93247.86;;;;
2021/02/01 00:17:56;;;;;;;48.2;20.8;;;;;;;0.65;100;93247.86;;;;
2021/02/01 00:18:56;;;;;;;48.2;20.8;;;;;;;0.65;100;93247.86;;;;
2021/02/01 00:19:57;;;;;;;48.2;20.8;;;;;;;0.65;100;93247.86;;;;
2021/02/01 00:20:57;;;;;;;48.2;20.8;;;;;;;0.65;100;93247.86;;;;
2021/02/01 00:21:57;;;;;;;48.2;20.8;;;;;;;0.65;100;93247.86;;;;
2021/02/01 00:22:58;;;;;;;48.2;20.8;;;;;;;0.65;100;93247.86;;;;
2021/02/01 00:23:59;;;;;;;48.2;20.8;;;;;;;0.65;100;93247.86;;;;
2021/02/01 00:24:59;;;;;;;48.2;20.8;;;;;;;0.65;100;93247.86;;;;
2021/02/01 00:26:00;;;;;;;48.2;20.8;;;;;;;0.65;100;93247.86;;;;
2021/02/01 00:27:00;;;;;;;48.2;20.8;;;;;;;0.65;100;93247.86;;;;
2021/02/01 00:28:01;;;;;;;51.2;21.75;;;;;;;0.7;100;93228.52;;;;
2021/02/01 00:29:02;;;;;;;51.2;21.75;;;;;;;0.7;100;93228.52;;;;
2021/02/01 00:30:03;;;;;;;51.2;21.75;;;;;;;0.7;100;93228.52;;;;
2021/02/01 00:31:06;;;;;;;51.2;21.75;;;;;;;0.7;100;93228.52;;;;
2021/02/01 00:32:07;;;;;;;51.2;21.75;;;;;;;0.7;100;93228.52;;;;
2021/02/01 00:33:08;;;;;;;51.2;21.75;;;;;;;0.7;100;93228.52;;;;
2021/02/01 00:34:10;;;;;;;51.2;21.75;;;;;;;0.7;100;93228.52;;;;
2021/02/01 00:35:10;;;;;;;51.2;21.75;;;;;;;0.7;100;93228.52;;;;
2021/02/01 00:36:13;;;;;;;51.2;21.75;;;;;;;0.7;100;93228.52;;;;
2021/02/01 00:37:14;;;;;;;51.2;21.75;;;;;;;0.7;100;93228.52;;;;
2021/02/01 00:38:15;;;;;;;44.8;18.9;;;;;;;0.66;100;93213.14;;;;
2021/02/01 00:39:15;;;;;;;44.8;18.9;;;;;;;0.66;100;93213.14;;;;
2021/02/01 00:40:16;;;;;;;44.8;18.9;;;;;;;0.66;100;93213.14;;;;
2021/02/01 00:41:19;;;;;;;44.8;18.9;;;;;;;0.66;100;93213.14;;;;
2021/02/01 00:42:19;;;;;;;44.8;18.9;;;;;;;0.66;100;93213.14;;;;
2021/02/01 00:43:20;;;;;;;44.8;18.9;;;;;;;0.66;100;93213.14;;;;
2021/02/01 00:44:20;;;;;;;44.8;18.9;;;;;;;0.66;100;93213.14;;;;
2021/02/01 00:45:21;;;;;;;44.8;18.9;;;;;;;0.66;100;93213.14;;;;
2021/02/01 00:46:22;;;;;;;44.8;18.9;;;;;;;0.66;100;93213.14;;;;
2021/02/01 00:47:23;;;;;;;44.8;18.9;;;;;;;0.66;100;93213.14;;;;
2021/02/01 00:48:23;;;;;;;46.95;20.2;;;;;;;0.6;100;93199.54;;;;
2021/02/01 00:49:24;;;;;;;46.95;20.2;;;;;;;0.6;100;93199.54;;;;
2021/02/01 00:50:24;;;;;;;46.95;20.2;;;;;;;0.6;100;93199.54;;;;
2021/02/01 00:51:28;;;;;;;46.95;20.2;;;;;;;0.6;100;93199.54;;;;
2021/02/01 00:52:29;;;;;;;46.95;20.2;;;;;;;0.6;100;93199.54;;;;
2021/02/01 00:53:29;;;;;;;46.95;20.2;;;;;;;0.6;100;93199.54;;;;
2021/02/01 00:54:29;;;;;;;46.95;20.2;;;;;;;0.6;100;93199.54;;;;
2021/02/01 00:55:30;;;;;;;46.95;20.2;;;;;;;0.6;100;93199.54;;;;
2021/02/01 00:56:30;;;;;;;46.95;20.2;;;;;;;0.6;100;93199.54;;;;
2021/02/01 00:57:31;;;;;;;46.95;20.2;;;;;;;0.6;100;93199.54;;;;
2021/02/01 00:58:31;;;;;;;46.95;20.2;;;;;;;0.6;100;93199.54;;;;
2021/02/01 00:59:32;;;;;;;43.6;19.35;;;;;;;0.6;100;93183.51;;;;
2021/02/01 01:00:33;;;;;;;43.6;19.35;;;;;;;0.6;100;93183.51;;;;
2021/02/01 01:01:35;;;;;;;43.6;19.35;;;;;;;0.6;100;93183.51;;;;
2021/02/01 01:02:36;;;;;;;43.6;19.35;;;;;;;0.6;100;93183.51;;;;
2021/02/01 01:03:37;;;;;;;43.6;19.35;;;;;;;0.6;100;93183.51;;;;
2021/02/01 01:04:37;;;;;;;43.6;19.35;;;;;;;0.6;100;93183.51;;;;
2021/02/01 01:05:38;;;;;;;43.6;19.35;;;;;;;0.6;100;93183.51;;;;
2021/02/01 01:06:38;;;;;;;43.6;19.35;;;;;;;0.6;100;93183.51;;;;
2021/02/01 01:07:39;;;;;;;43.6;19.35;;;;;;;0.6;100;93183.51;;;;
2021/02/01 01:08:40;;;;;;;43.6;19.35;;;;;;;0.6;100;93183.51;;;;
2021/02/01 01:09:41;;;;;;;43.6;19.35;;;;;;;0.6;100;93183.51;;;;
2021/02/01 01:10:41;;;;;;;48.15;20.85;;;;;;;0.65;100;93178.45;;;;
2021/02/01 01:11:41;;;;;;;48.15;20.85;;;;;;;0.65;100;93178.45;;;;
2021/02/01 01:12:43;;;;;;;48.15;20.85;;;;;;;0.65;100;93178.45;;;;
2021/02/01 01:13:43;;;;;;;48.15;20.85;;;;;;;0.65;100;93178.45;;;;
2021/02/01 01:14:45;;;;;;;48.15;20.85;;;;;;;0.65;100;93178.45;;;;
2021/02/01 01:15:45;;;;;;;48.15;20.85;;;;;;;0.65;100;93178.45;;;;
2021/02/01 01:16:45;;;;;;;48.15;20.85;;;;;;;0.65;100;93178.45;;;;
2021/02/01 01:17:46;;;;;;;48.15;20.85;;;;;;;0.65;100;93178.45;;;;
2021/02/01 01:18:47;;;;;;;48.15;20.85;;;;;;;0.65;100;93178.45;;;;
2021/02/01 01:19:47;;;;;;;48.15;20.85;;;;;;;0.65;100;93178.45;;;;
2021/02/01 01:20:49;;;;;;;51.65;19.9;;;;;;;0.67;100;93160.42;;;;
2021/02/01 01:21:50;;;;;;;51.65;19.9;;;;;;;0.67;100;93160.42;;;;
2021/02/01 01:22:50;;;;;;;51.65;19.9;;;;;;;0.67;100;93160.42;;;;
2021/02/01 01:23:51;;;;;;;51.65;19.9;;;;;;;0.67;100;93160.42;;;;
2021/02/01 01:24:52;;;;;;;51.65;19.9;;;;;;;0.67;100;93160.42;;;;
2021/02/01 01:25:53;;;;;;;51.65;19.9;;;;;;;0.67;100;93160.42;;;;
2021/02/01 01:26:53;;;;;;;51.65;19.9;;;;;;;0.67;100;93160.42;;;;
2021/02/01 01:27:54;;;;;;;51.65;19.9;;;;;;;0.67;100;93160.42;;;;
2021/02/01 01:28:55;;;;;;;51.65;19.9;;;;;;;0.67;100;93160.42;;;;
2021/02/01 01:29:56;;;;;;;51.65;19.9;;;;;;;0.67;100;93160.42;;;;
2021/02/01 01:30:56;;;;;;;51.65;19.9;;;;;;;0.67;100;93160.42;;;;
2021/02/01 01:31:57;;;;;;;47.95001;20.35;;;;;;;0.68;100;93142.95;;;;
2021/02/01 01:32:57;;;;;;;47.95001;20.35;;;;;;;0.68;100;93142.95;;;;
2021/02/01 01:33:58;;;;;;;47.95001;20.35;;;;;;;0.68;100;93142.95;;;;
2021/02/01 01:34:58;;;;;;;47.95001;20.35;;;;;;;0.68;100;93142.95;;;;
2021/02/01 01:35:59;;;;;;;47.95001;20.35;;;;;;;0.68;100;93142.95;;;;
2021/02/01 01:37:00;;;;;;;47.95001;20.35;;;;;;;0.68;100;93142.95;;;;
2021/02/01 01:38:00;;;;;;;47.95001;20.35;;;;;;;0.68;100;93142.95;;;;
2021/02/01 01:39:01;;;;;;;47.95001;20.35;;;;;;;0.68;100;93142.95;;;;
2021/02/01 01:40:03;;;;;;;47.95001;20.35;;;;;;;0.68;100;93142.95;;;;
2021/02/01 01:41:06;;;;;;;47.95001;20.35;;;;;;;0.68;100;93142.95;;;;
2021/02/01 01:42:08;;;;;;;46.35;20.1;;;;;;;0.68;100;93129.68;;;;
2021/02/01 01:43:09;;;;;;;46.35;20.1;;;;;;;0.68;100;93129.68;;;;
2021/02/01 01:44:12;;;;;;;46.35;20.1;;;;;;;0.68;100;93129.68;;;;
2021/02/01 01:45:12;;;;;;;46.35;20.1;;;;;;;0.68;100;93129.68;;;;
2021/02/01 01:46:14;;;;;;;46.35;20.1;;;;;;;0.68;100;93129.68;;;;
2021/02/01 01:47:35;;;;;;;46.35;20.1;;;;;;;0.68;100;93129.68;;;;
2021/02/01 01:48:40;;;;;;;46.35;20.1;;;;;;;0.68;100;93129.68;;;;
2021/02/01 01:49:44;;;;;;;46.35;20.1;;;;;;;0.68;100;93129.68;;;;
2021/02/01 01:50:45;;;;;;;46.35;20.1;;;;;;;0.68;100;93129.68;;;;
2021/02/01 01:51:49;;;;;;;46.35;20.1;;;;;;;0.68;100;93129.68;;;;
2021/02/01 01:52:49;;;;;;;50.35;21.4;;;;;;;0.64;100;93116.16;;;;
2021/02/01 01:53:53;;;;;;;50.35;21.4;;;;;;;0.64;100;93116.16;;;;
2021/02/01 01:55:01;;;;;;;50.35;21.4;;;;;;;0.64;100;93116.16;;;;
2021/02/01 01:56:04;;;;;;;50.35;21.4;;;;;;;0.64;100;93116.16;;;;
2021/02/01 01:57:05;;;;;;;50.35;21.4;;;;;;;0.64;100;93116.16;;;;
2021/02/01 01:58:06;;;;;;;50.35;21.4;;;;;;;0.64;100;93116.16;;;;
2021/02/01 01:59:07;;;;;;;50.35;21.4;;;;;;;0.64;100;93116.16;;;;
2021/02/01 02:00:22;;;;;;;50.35;21.4;;;;;;;0.64;100;93116.16;;;;
2021/02/01 02:01:23;;;;;;;50.35;21.4;;;;;;;0.64;100;93116.16;;;;
2021/02/01 02:02:24;;;;;;;50.35;21.4;;;;;;;0.64;100;93116.16;;;;
2021/02/01 02:03:28;;;;;;;49.6;21.4;;;;;;;0.65;100;93113.78;;;;
2021/02/01 02:04:29;;;;;;;49.6;21.4;;;;;;;0.65;100;93113.78;;;;
2021/02/01 02:05:30;;;;;;;49.6;21.4;;;;;;;0.65;100;93113.78;;;;
2021/02/01 02:06:31;;;;;;;49.6;21.4;;;;;;;0.65;100;93113.78;;;;
2021/02/01 02:07:31;;;;;;;49.6;21.4;;;;;;;0.65;100;93113.78;;;;
2021/02/01 02:08:32;;;;;;;49.6;21.4;;;;;;;0.65;100;93113.78;;;;
2021/02/01 02:09:37;;;;;;;49.6;21.4;;;;;;;0.65;100;93113.78;;;;
2021/02/01 02:10:38;;;;;;;49.6;21.4;;;;;;;0.65;100;93113.78;;;;
2021/02/01 02:11:40;;;;;;;49.6;21.4;;;;;;;0.65;100;93113.78;;;;
2021/02/01 02:12:50;;;;;;;49.6;21.4;;;;;;;0.65;100;93113.78;;;;
2021/02/01 02:13:59;;;;;;;46.15;20.05;;;;;;;0.64;100;93094.41;;;;
2021/02/01 02:15:13;;;;;;;46.15;20.05;;;;;;;0.64;100;93094.41;;;;
2021/02/01 02:16:29;;;;;;;46.15;20.05;;;;;;;0.64;100;93094.41;;;;
2021/02/01 02:17:36;;;;;;;46.15;20.05;;;;;;;0.64;100;93094.41;;;;
2021/02/01 02:18:43;;;;;;;46.15;20.05;;;;;;;0.64;100;93094.41;;;;
2021/02/01 02:19:55;;;;;;;46.15;20.05;;;;;;;0.64;100;93094.41;;;;
2021/02/01 02:21:25;;;;;;;46.15;20.05;;;;;;;0.64;100;93094.41;;;;
2021/02/01 02:26:49;;;;;;;50.6;21.15;;;;;;;0.6;100;93094.67;;;;
2021/02/01 02:32:14;;;;;;;50.6;21.15;;;;;;;0.6;100;93094.67;;;;
2021/02/01 02:33:43;;;;;;;50.6;21.15;;;;;;;0.6;100;93094.67;;;;
2021/02/01 02:35:08;;;;;;;47.85;21.95;;;;;;;0.57;100;93068.08;;;;
2021/02/01 02:36:38;;;;;;;47.85;21.95;;;;;;;0.57;100;93068.08;;;;
2021/02/01 02:37:57;;;;;;;47.85;21.95;;;;;;;0.57;100;93068.08;;;;
2021/02/01 02:39:49;;;;;;;47.85;21.95;;;;;;;0.57;100;93068.08;;;;
2021/02/01 02:41:11;;;;;;;47.85;21.95;;;;;;;0.57;100;93068.08;;;;
2021/02/01 02:42:31;;;;;;;47.85;21.95;;;;;;;0.57;100;93068.08;;;;
2021/02/01 02:43:49;;;;;;;47.85;21.95;;;;;;;0.57;100;93068.08;;;;
2021/02/01 02:45:05;;;;;;;47.85;21.95;;;;;;;0.57;100;93068.08;;;;
2021/02/01 02:46:19;;;;;;;49.64999;22.8;;;;;;;0.54;100;93062.29;;;;
2021/02/01 02:47:36;;;;;;;49.64999;22.8;;;;;;;0.54;100;93062.29;;;;
2021/02/01 02:49:05;;;;;;;49.64999;22.8;;;;;;;0.54;100;93062.29;;;;
2021/02/01 02:50:18;;;;;;;49.64999;22.8;;;;;;;0.54;100;93062.29;;;;
2021/02/01 02:51:23;;;;;;;49.64999;22.8;;;;;;;0.54;100;93062.29;;;;
2021/02/01 02:52:28;;;;;;;49.64999;22.8;;;;;;;0.54;100;93062.29;;;;
2021/02/01 02:53:35;;;;;;;49.64999;22.8;;;;;;;0.54;100;93062.29;;;;
2021/02/01 02:54:42;;;;;;;49.64999;22.8;;;;;;;0.54;100;93062.29;;;;
2021/02/01 02:55:46;;;;;;;49.64999;22.8;;;;;;;0.54;100;93062.29;;;;
2021/02/01 02:56:52;;;;;;;56.65;23.85;;;;;;;0.52;100;93055.61;;;;
2021/02/01 02:57:58;;;;;;;56.65;23.85;;;;;;;0.52;100;93055.61;;;;
2021/02/01 02:59:04;;;;;;;56.65;23.85;;;;;;;0.52;100;93055.61;;;;
2021/02/01 03:00:11;;;;;;;56.65;23.85;;;;;;;0.52;100;93055.61;;;;
2021/02/01 03:01:18;;;;;;;56.65;23.85;;;;;;;0.52;100;93055.61;;;;
2021/02/01 03:02:29;;;;;;;56.65;23.85;;;;;;;0.52;100;93055.61;;;;
2021/02/01 03:03:33;;;;;;;56.65;23.85;;;;;;;0.52;100;93055.61;;;;
2021/02/01 03:04:39;;;;;;;56.65;23.85;;;;;;;0.52;100;93055.61;;;;
2021/02/01 03:05:51;;;;;;;56.65;23.85;;;;;;;0.52;100;93055.61;;;;
2021/02/01 03:06:54;;;;;;;56.65;23.85;;;;;;;0.52;100;93055.61;;;;
2021/02/01 03:08:00;;;;;;;50.6;21.75;;;;;;;0.51;100;93041.93;;;;
2021/02/01 03:09:07;;;;;;;50.6;21.75;;;;;;;0.51;100;93041.93;;;;
2021/02/01 03:10:13;;;;;;;50.6;21.75;;;;;;;0.51;100;93041.93;;;;
2021/02/01 03:11:22;;;;;;;50.6;21.75;;;;;;;0.51;100;93041.93;;;;
2021/02/01 03:12:27;;;;;;;50.6;21.75;;;;;;;0.51;100;93041.93;;;;
2021/02/01 03:13:32;;;;;;;50.6;21.75;;;;;;;0.51;100;93041.93;;;;
2021/02/01 03:14:38;;;;;;;50.6;21.75;;;;;;;0.51;100;93041.93;;;;
2021/02/01 03:15:44;;;;;;;50.6;21.75;;;;;;;0.51;100;93041.93;;;;
2021/02/01 03:16:50;;;;;;;50.6;21.75;;;;;;;0.51;100;93041.93;;;;
2021/02/01 03:17:58;;;;;;;50.00001;21.45;;;;;;;0.48;100;93030.45;;;;
2021/02/01 03:19:04;;;;;;;50.00001;21.45;;;;;;;0.48;100;93030.45;;;;
2021/02/01 03:20:10;;;;;;;50.00001;21.45;;;;;;;0.48;100;93030.45;;;;
2021/02/01 03:21:17;;;;;;;50.00001;21.45;;;;;;;0.48;100;93030.45;;;;
2021/02/01 03:22:21;;;;;;;50.00001;21.45;;;;;;;0.48;100;93030.45;;;;
2021/02/01 03:23:28;;;;;;;50.00001;21.45;;;;;;;0.48;100;93030.45;;;;
2021/02/01 03:24:32;;;;;;;50.00001;21.45;;;;;;;0.48;100;93030.45;;;;
2021/02/01 03:25:33;;;;;;;50.00001;21.45;;;;;;;0.48;100;93030.45;;;;
2021/02/01 03:26:41;;;;;;;50.00001;21.45;;;;;;;0.48;100;93030.45;;;;
2021/02/01 03:27:48;;;;;;;50.00001;21.45;;;;;;;0.48;100;93030.45;;;;
2021/02/01 03:28:56;;;;;;;46.25001;21.05;;;;;;;0.45;100;93013.78;;;;
2021/02/01 03:29:58;;;;;;;46.25001;21.05;;;;;;;0.45;100;93013.78;;;;
2021/02/01 03:30:58;;;;;;;46.25001;21.05;;;;;;;0.45;100;93013.78;;;;
2021/02/01 03:32:02;;;;;;;46.25001;21.05;;;;;;;0.45;100;93013.78;;;;
2021/02/01 03:33:03;;;;;;;46.25001;21.05;;;;;;;0.45;100;93013.78;;;;
2021/02/01 03:34:04;;;;;;;46.25001;21.05;;;;;;;0.45;100;93013.78;;;;
2021/02/01 03:35:08;;;;;;;46.25001;21.05;;;;;;;0.45;100;93013.78;;;;
2021/02/01 03:36:13;;;;;;;46.25001;21.05;;;;;;;0.45;100;93013.78;;;;
2021/02/01 03:37:14;;;;;;;46.25001;21.05;;;;;;;0.45;100;93013.78;;;;
2021/02/01 03:38:14;;;;;;;46.25001;21.05;;;;;;;0.45;100;93013.78;;;;
2021/02/01 03:39:16;;;;;;;47.75;21.1;;;;;;;0.44;100;93035.11;;;;
2021/02/01 03:40:19;;;;;;;47.75;21.1;;;;;;;0.44;100;93035.11;;;;
2021/02/01 03:41:20;;;;;;;47.75;21.1;;;;;;;0.44;100;93035.11;;;;
2021/02/01 03:42:29;;;;;;;47.75;21.1;;;;;;;0.44;100;93035.11;;;;
2021/02/01 03:43:33;;;;;;;47.75;21.1;;;;;;;0.44;100;93035.11;;;;
2021/02/01 03:44:49;;;;;;;47.75;21.1;;;;;;;0.44;100;93035.11;;;;
2021/02/01 03:46:12;;;;;;;47.75;21.1;;;;;;;0.44;100;93035.11;;;;
2021/02/01 03:47:24;;;;;;;47.75;21.1;;;;;;;0.44;100;93035.11;;;;
2021/02/01 03:48:34;;;;;;;47.75;21.1;;;;;;;0.44;100;93035.11;;;;
2021/02/01 03:49:39;;;;;;;47.75;21.1;;;;;;;0.44;100;93035.11;;;;
2021/02/01 03:50:48;;;;;;;45.35001;20.05;;;;;;;0.51;100;93017.22;;;;
2021/02/01 03:51:54;;;;;;;45.35001;20.05;;;;;;;0.51;100;93017.22;;;;
2021/02/01 03:53:06;;;;;;;45.35001;20.05;;;;;;;0.51;100;93017.22;;;;
2021/02/01 03:54:16;;;;;;;45.35001;20.05;;;;;;;0.51;100;93017.22;;;;
2021/02/01 03:55:25;;;;;;;45.35001;20.05;;;;;;;0.51;100;93017.22;;;;
2021/02/01 03:56:33;;;;;;;45.35001;20.05;;;;;;;0.51;100;93017.22;;;;
2021/02/01 03:57:42;;;;;;;45.35001;20.05;;;;;;;0.51;100;93017.22;;;;
2021/02/01 03:58:50;;;;;;;45.35001;20.05;;;;;;;0.51;100;93017.22;;;;
2021/02/01 03:59:56;;;;;;;45.35001;20.05;;;;;;;0.51;100;93017.22;;;;
2021/02/01 04:01:06;;;;;;;45.1;20.5;;;;;;;0.56;100;93010.28;;;;
2021/02/01 04:02:14;;;;;;;45.1;20.5;;;;;;;0.56;100;93010.28;;;;
2021/02/01 04:03:22;;;;;;;45.1;20.5;;;;;;;0.56;100;93010.28;;;;
2021/02/01 04:04:26;;;;;;;45.1;20.5;;;;;;;0.56;100;93010.28;;;;
2021/02/01 04:05:30;;;;;;;45.1;20.5;;;;;;;0.56;100;93010.28;;;;
2021/02/01 04:06:35;;;;;;;45.1;20.5;;;;;;;0.56;100;93010.28;;;;
2021/02/01 04:07:35;;;;;;;45.1;20.5;;;;;;;0.56;100;93010.28;;;;
2021/02/01 04:08:36;;;;;;;45.1;20.5;;;;;;;0.56;100;93010.28;;;;
2021/02/01 04:09:38;;;;;;;45.1;20.5;;;;;;;0.56;100;93010.28;;;;
2021/02/01 04:10:39;;;;;;;45.1;20.5;;;;;;;0.56;100;93010.28;;;;
2021/02/01 04:11:41;;;;;;;49.65;20.7;;;;;;;0.58;100;92997.22;;;;
2021/02/01 04:12:45;;;;;;;49.65;20.7;;;;;;;0.58;100;92997.22;;;;
2021/02/01 04:13:45;;;;;;;49.65;20.7;;;;;;;0.58;100;92997.22;;;;
2021/02/01 04:14:46;;;;;;;49.65;20.7;;;;;;;0.58;100;92997.22;;;;
2021/02/01 04:15:47;;;;;;;49.65;20.7;;;;;;;0.58;100;92997.22;;;;
2021/02/01 04:16:48;;;;;;;49.65;20.7;;;;;;;0.58;100;92997.22;;;;
2021/02/01 04:17:50;;;;;;;49.65;20.7;;;;;;;0.58;100;92997.22;;;;
2021/02/01 04:18:55;;;;;;;49.65;20.7;;;;;;;0.58;100;92997.22;;;;
2021/02/01 04:19:56;;;;;;;49.65;20.7;;;;;;;0.58;100;92997.22;;;;
2021/02/01 04:20:56;;;;;;;49.65;20.7;;;;;;;0.58;100;92997.22;;;;
2021/02/01 04:21:57;;;;;;;51.94999;21.85;;;;;;;0.58;100;92985.65;;;;
2021/02/01 04:22:58;;;;;;;51.94999;21.85;;;;;;;0.58;100;92985.65;;;;
2021/02/01 04:23:58;;;;;;;51.94999;21.85;;;;;;;0.58;100;92985.65;;;;
2021/02/01 04:24:59;;;;;;;51.94999;21.85;;;;;;;0.58;100;92985.65;;;;
2021/02/01 04:25:59;;;;;;;51.94999;21.85;;;;;;;0.58;100;92985.65;;;;
2021/02/01 04:27:00;;;;;;;51.94999;21.85;;;;;;;0.58;100;92985.65;;;;
2021/02/01 04:28:01;;;;;;;51.94999;21.85;;;;;;;0.58;100;92985.65;;;;
2021/02/01 04:29:04;;;;;;;51.94999;21.85;;;;;;;0.58;100;92985.65;;;;
2021/02/01 04:30:05;;;;;;;51.94999;21.85;;;;;;;0.58;100;92985.65;;;;
2021/02/01 04:31:09;;;;;;;51.94999;21.85;;;;;;;0.58;100;92985.65;;;;
2021/02/01 04:32:09;;;;;;;51.94999;21.85;;;;;;;0.58;100;92985.65;;;;
2021/02/01 04:33:10;;;;;;;54.05;23.05;;;;;;;0.52;100;93011.67;;;;
2021/02/01 04:34:10;;;;;;;54.05;23.05;;;;;;;0.52;100;93011.67;;;;
2021/02/01 04:35:11;;;;;;;54.05;23.05;;;;;;;0.52;100;93011.67;;;;
2021/02/01 04:36:13;;;;;;;54.05;23.05;;;;;;;0.52;100;93011.67;;;;
2021/02/01 04:37:14;;;;;;;54.05;23.05;;;;;;;0.52;100;93011.67;;;;
2021/02/01 04:38:15;;;;;;;54.05;23.05;;;;;;;0.52;100;93011.67;;;;
2021/02/01 04:39:16;;;;;;;54.05;23.05;;;;;;;0.52;100;93011.67;;;;
2021/02/01 04:40:17;;;;;;;54.05;23.05;;;;;;;0.52;100;93011.67;;;;
2021/02/01 04:41:27;;;;;;;54.05;23.05;;;;;;;0.52;100;93011.67;;;;
2021/02/01 04:42:27;;;;;;;54.05;23.05;;;;;;;0.52;100;93011.67;;;;
2021/02/01 04:43:28;;;;;;;55.25;22.8;;;;;;;0.52;100;93005.04;;;;
2021/02/01 04:44:31;;;;;;;55.25;22.8;;;;;;;0.52;100;93005.04;;;;
2021/02/01 04:45:32;;;;;;;55.25;22.8;;;;;;;0.52;100;93005.04;;;;
2021/02/01 04:46:33;;;;;;;55.25;22.8;;;;;;;0.52;100;93005.04;;;;
2021/02/01 04:47:41;;;;;;;55.25;22.8;;;;;;;0.52;100;93005.04;;;;
2021/02/01 04:48:48;;;;;;;55.25;22.8;;;;;;;0.52;100;93005.04;;;;
2021/02/01 04:49:55;;;;;;;55.25;22.8;;;;;;;0.52;100;93005.04;;;;
2021/02/01 04:51:03;;;;;;;55.25;22.8;;;;;;;0.52;100;93005.04;;;;
2021/02/01 04:52:08;;;;;;;55.25;22.8;;;;;;;0.52;100;93005.04;;;;
2021/02/01 04:53:12;;;;;;;55.25;22.8;;;;;;;0.52;100;93005.04;;;;
2021/02/01 04:54:20;;;;;;;51.90001;22.1;;;;;;;0.55;100;92989.59;;;;
2021/02/01 04:55:31;;;;;;;51.90001;22.1;;;;;;;0.55;100;92989.59;;;;
2021/02/01 04:56:41;;;;;;;51.90001;22.1;;;;;;;0.55;100;92989.59;;;;
2021/02/01 04:57:45;;;;;;;51.90001;22.1;;;;;;;0.55;100;92989.59;;;;
2021/02/01 04:58:51;;;;;;;51.90001;22.1;;;;;;;0.55;100;92989.59;;;;
2021/02/01 04:59:57;;;;;;;51.90001;22.1;;;;;;;0.55;100;92989.59;;;;
2021/02/01 05:01:03;;;;;;;51.90001;22.1;;;;;;;0.55;100;92989.59;;;;
2021/02/01 05:02:13;;;;;;;51.90001;22.1;;;;;;;0.55;100;92989.59;;;;
2021/02/01 05:03:18;;;;;;;51.90001;22.1;;;;;;;0.55;100;92989.59;;;;
2021/02/01 05:04:27;;;;;;;54.4;23.45;;;;;;;0.57;100;93001.71;;;;
2021/02/01 05:05:35;;;;;;;54.4;23.45;;;;;;;0.57;100;93001.71;;;;
2021/02/01 05:06:44;;;;;;;54.4;23.45;;;;;;;0.57;100;93001.71;;;;
2021/02/01 05:07:50;;;;;;;54.4;23.45;;;;;;;0.57;100;93001.71;;;;
2021/02/01 05:08:57;;;;;;;54.4;23.45;;;;;;;0.57;100;93001.71;;;;
2021/02/01 05:10:10;;;;;;;54.4;23.45;;;;;;;0.57;100;93001.71;;;;
2021/02/01 05:11:17;;;;;;;54.4;23.45;;;;;;;0.57;100;93001.71;;;;
2021/02/01 05:12:31;;;;;;;54.4;23.45;;;;;;;0.57;100;93001.71;;;;
2021/02/01 05:13:36;;;;;;;54.4;23.45;;;;;;;0.57;100;93001.71;;;;
2021/02/01 05:14:37;;;;;;;54.4;23.45;;;;;;;0.57;100;93001.71;;;;
2021/02/01 05:15:43;;;;;;;52.99999;22.85;;;;;;;0.59;100;93011.58;;;;
2021/02/01 05:16:47;;;;;;;52.99999;22.85;;;;;;;0.59;100;93011.58;;;;
2021/02/01 05:17:47;;;;;;;52.99999;22.85;;;;;;;0.59;100;93011.58;;;;
2021/02/01 05:18:48;;;;;;;52.99999;22.85;;;;;;;0.59;100;93011.58;;;;
2021/02/01 05:19:49;;;;;;;52.99999;22.85;;;;;;;0.59;100;93011.58;;;;
2021/02/01 05:20:50;;;;;;;52.99999;22.85;;;;;;;0.59;100;93011.58;;;;
2021/02/01 05:21:50;;;;;;;52.99999;22.85;;;;;;;0.59;100;93011.58;;;;
2021/02/01 05:22:51;;;;;;;52.99999;22.85;;;;;;;0.59;100;93011.58;;;;
2021/02/01 05:23:52;;;;;;;52.99999;22.85;;;;;;;0.59;100;93011.58;;;;
2021/02/01 05:25:00;;;;;;;52.99999;22.85;;;;;;;0.59;100;93011.58;;;;
2021/02/01 05:26:03;;;;;;;59.7;25.45;;;;;;;0.61;100;93014.4;;;;
2021/02/01 05:27:11;;;;;;;59.7;25.45;;;;;;;0.61;100;93014.4;;;;
2021/02/01 05:28:13;;;;;;;59.7;25.45;;;;;;;0.61;100;93014.4;;;;
2021/02/01 05:29:13;;;;;;;59.7;25.45;;;;;;;0.61;100;93014.4;;;;
2021/02/01 05:30:30;;;;;;;59.7;25.45;;;;;;;0.61;100;93014.4;;;;
2021/02/01 05:31:32;;;;;;;59.7;25.45;;;;;;;0.61;100;93014.4;;;;
2021/02/01 05:32:46;;;;;;;59.7;25.45;;;;;;;0.61;100;93014.4;;;;
2021/02/01 05:33:48;;;;;;;59.7;25.45;;;;;;;0.61;100;93014.4;;;;
2021/02/01 05:34:51;;;;;;;59.7;25.45;;;;;;;0.61;100;93014.4;;;;
2021/02/01 05:35:53;;;;;;;59.7;25.45;;;;;;;0.61;100;93014.4;;;;
2021/02/01 05:36:54;;;;;;;63.95;26.65;;;;;;;0.65;100;93026.98;;;;
2021/02/01 05:38:06;;;;;;;63.95;26.65;;;;;;;0.65;100;93026.98;;;;
2021/02/01 05:39:39;;;;;;;63.95;26.65;;;;;;;0.65;100;93026.98;;;;
2021/02/01 05:40:40;;;;;;;63.95;26.65;;;;;;;0.65;100;93026.98;;;;
2021/02/01 05:41:40;;;;;;;63.95;26.65;;;;;;;0.65;100;93026.98;;;;
2021/02/01 05:42:52;;;;;;;63.95;26.65;;;;;;;0.65;100;93026.98;;;;
2021/02/01 05:43:53;;;;;;;63.95;26.65;;;;;;;0.65;100;93026.98;;;;
2021/02/01 05:45:10;;;;;;;63.95;26.65;;;;;;;0.65;100;93026.98;;;;
2021/02/01 05:46:24;;;;;;;63.95;26.65;;;;;;;0.65;100;93026.98;;;;
2021/02/01 05:47:29;;;;;;;60.65;24.6;;;;;;;0.67;100;93033.37;;;;
2021/02/01 05:48:33;;;;;;;60.65;24.6;;;;;;;0.67;100;93033.37;;;;
2021/02/01 05:49:33;;;;;;;60.65;24.6;;;;;;;0.67;100;93033.37;;;;
2021/02/01 05:50:35;;;;;;;60.65;24.6;;;;;;;0.67;100;93033.37;;;;
2021/02/01 05:51:37;;;;;;;60.65;24.6;;;;;;;0.67;100;93033.37;;;;
2021/02/01 05:52:40;;;;;;;60.65;24.6;;;;;;;0.67;100;93033.37;;;;
2021/02/01 05:53:40;;;;;;;60.65;24.6;;;;;;;0.67;100;93033.37;;;;
2021/02/01 05:54:42;;;;;;;60.65;24.6;;;;;;;0.67;100;93033.37;;;;
2021/02/01 05:55:45;;;;;;;60.65;24.6;;;;;;;0.67;100;93033.37;;;;
2021/02/01 05:56:55;;;;;;;60.65;24.6;;;;;;;0.67;100;93033.37;;;;
2021/02/01 05:57:57;;;;;;;55.05;23.25;;;;;;;0.69;100;93033.04;;;;
2021/02/01 05:58:58;;;;;;;55.05;23.25;;;;;;;0.69;100;93033.04;;;;
2021/02/01 06:00:06;;;;;;;55.05;23.25;;;;;;;0.69;100;93033.04;;;;
2021/02/01 06:01:18;;;;;;;55.05;23.25;;;;;;;0.69;100;93033.04;;;;
2021/02/01 06:02:25;;;;;;;55.05;23.25;;;;;;;0.69;100;93033.04;;;;
2021/02/01 06:03:54;;;;;;;55.05;23.25;;;;;;;0.69;100;93033.04;;;;
2021/02/01 06:04:58;;;;;;;55.05;23.25;;;;;;;0.69;100;93033.04;;;;
2021/02/01 06:06:07;;;;;;;55.05;23.25;;;;;;;0.69;100;93033.04;;;;
2021/02/01 06:07:08;;;;;;;55.05;23.25;;;;;;;0.69;100;93033.04;;;;
2021/02/01 06:08:15;;;;;;;55.05;23.25;;;;;;;0.69;100;93033.04;;;;
2021/02/01 06:09:20;;;;;;;52.6;24.15;;;;;;;0.7;100;93036.38;;;;
2021/02/01 06:10:26;;;;;;;52.6;24.15;;;;;;;0.7;100;93036.38;;;;
2021/02/01 06:11:29;;;;;;;52.6;24.15;;;;;;;0.7;100;93036.38;;;;
2021/02/01 06:12:29;;;;;;;52.6;24.15;;;;;;;0.7;100;93036.38;;;;
2021/02/01 06:13:46;;;;;;;52.6;24.15;;;;;;;0.7;100;93036.38;;;;
2021/02/01 06:14:47;;;;;;;52.6;24.15;;;;;;;0.7;100;93036.38;;;;
2021/02/01 06:15:52;;;;;;;52.6;24.15;;;;;;;0.7;100;93036.38;;;;
2021/02/01 06:16:53;;;;;;;52.6;24.15;;;;;;;0.7;100;93036.38;;;;
2021/02/01 06:18:00;;;;;;;52.6;24.15;;;;;;;0.7;100;93036.38;;;;
2021/02/01 06:19:03;;;;;;;52.6;24.15;;;;;;;0.7;100;93036.38;;;;
2021/02/01 06:20:06;;;;;;;54.3;23.7;;;;;;;0.78;100;93058.72;;;;
2021/02/01 06:21:13;;;;;;;54.3;23.7;;;;;;;0.78;100;93058.72;;;;
2021/02/01 06:22:22;;;;;;;54.3;23.7;;;;;;;0.78;100;93058.72;;;;
2021/02/01 06:23:30;;;;;;;54.3;23.7;;;;;;;0.78;100;93058.72;;;;
2021/02/01 06:24:38;;;;;;;54.3;23.7;;;;;;;0.78;100;93058.72;;;;
2021/02/01 06:25:46;;;;;;;54.3;23.7;;;;;;;0.78;100;93058.72;;;;
2021/02/01 06:26:57;;;;;;;54.3;23.7;;;;;;;0.78;100;93058.72;;;;
2021/02/01 06:28:04;;;;;;;54.3;23.7;;;;;;;0.78;100;93058.72;;;;
2021/02/01 06:29:08;;;;;;;54.3;23.7;;;;;;;0.78;100;93058.72;;;;
2021/02/01 06:30:18;;;;;;;54.70001;23.4;;;;;;;0.78;100;93043.6;;;;
2021/02/01 06:31:26;;;;;;;54.70001;23.4;;;;;;;0.78;100;93043.6;;;;
2021/02/01 06:32:29;;;;;;;54.70001;23.4;;;;;;;0.78;100;93043.6;;;;
2021/02/01 06:33:30;;;;;;;54.70001;23.4;;;;;;;0.78;100;93043.6;;;;
2021/02/01 06:34:34;;;;;;;54.70001;23.4;;;;;;;0.78;100;93043.6;;;;
2021/02/01 06:35:37;;;;;;;54.70001;23.4;;;;;;;0.78;100;93043.6;;;;
2021/02/01 06:36:48;;;;;;;54.70001;23.4;;;;;;;0.78;100;93043.6;;;;
2021/02/01 06:37:58;;;;;;;54.70001;23.4;;;;;;;0.78;100;93043.6;;;;
2021/02/01 06:39:14;;;;;;;54.70001;23.4;;;;;;;0.78;100;93043.6;;;;